createdAt,value
2023-05-09T00:01:28.412Z,101052.00
2023-05-09T00:03:54.939Z,101056.53
2023-05-09T00:06:21.469Z,101052.13
2023-05-09T00:08:47.857Z,101053.03
2023-05-09T00:11:14.305Z,101055.84
2023-05-09T00:13:40.877Z,101054.09
2023-05-09T00:16:07.873Z,101050.53
2023-05-09T00:18:35.843Z,101045.13
2023-05-09T00:21:02.412Z,101044.28
2023-05-09T00:23:28.823Z,101043.41
2023-05-09T00:25:55.264Z,101038.09
2023-05-09T00:28:21.766Z,101041.78
2023-05-09T00:30:48.181Z,101032.81
2023-05-09T00:33:14.617Z,101023.06
2023-05-09T00:35:42.370Z,101034.84
2023-05-09T00:38:08.849Z,101033.97
2023-05-09T00:40:35.427Z,101028.63
2023-05-09T00:43:01.994Z,101027.81
2023-05-09T00:45:28.530Z,101022.41
2023-05-09T00:47:55.582Z,101028.56
2023-05-09T00:50:22.160Z,101018.78
2023-05-09T00:52:50.674Z,101018.84
2023-05-09T00:55:17.357Z,101018.06
2023-05-09T00:57:44.251Z,101018.09
2023-05-09T01:00:12.043Z,101018.19
2023-05-09T01:02:39.152Z,101015.50
2023-05-09T01:05:06.147Z,101014.63
2023-05-09T01:07:40.794Z,101012.91
2023-05-09T01:10:15.995Z,101011.13
2023-05-09T01:12:49.544Z,101010.22
2023-05-09T01:15:22.070Z,101003.16
2023-05-09T01:17:55.106Z,101013.09
2023-05-09T01:20:29.989Z,101005.97
2023-05-09T01:23:19.814Z,101014.09
2023-05-09T01:25:57.568Z,101008.75
2023-05-09T01:28:36.511Z,100999.81
2023-05-09T01:31:05.944Z,101002.63
2023-05-09T01:33:36.259Z,100997.28
2023-05-09T01:36:06.582Z,100995.50
2023-05-09T01:38:34.444Z,100993.78
2023-05-09T01:41:02.776Z,100991.00
2023-05-09T01:43:30.205Z,100993.72
2023-05-09T01:45:59.564Z,100990.16
2023-05-09T01:48:30.185Z,100991.09
2023-05-09T01:50:58.155Z,100990.22
2023-05-09T01:53:27.938Z,100997.47
2023-05-09T01:55:56.532Z,100989.38
2023-05-09T01:58:25.290Z,100986.72
2023-05-09T02:00:52.305Z,100986.75
2023-05-09T02:03:20.832Z,100984.06
2023-05-09T02:05:50.250Z,100975.94
2023-05-09T02:08:18.796Z,100975.00
2023-05-09T02:10:47.288Z,100976.91
2023-05-09T02:13:13.962Z,100976.06
2023-05-09T02:15:40.691Z,100973.34
2023-05-09T02:18:07.275Z,100971.63
2023-05-09T02:20:33.878Z,100966.25
2023-05-09T02:23:01.951Z,100966.28
2023-05-09T02:25:28.738Z,100967.09
2023-05-09T02:27:57.570Z,100969.75
2023-05-09T02:30:26.540Z,100972.44
2023-05-09T02:32:59.470Z,100970.66
2023-05-09T02:35:27.794Z,100967.06
2023-05-09T02:37:55.291Z,100967.03
2023-05-09T02:40:24.793Z,100968.84
2023-05-09T02:42:51.187Z,100963.47
2023-05-09T02:45:17.618Z,100965.38
2023-05-09T02:47:44.116Z,100962.63
2023-05-09T02:50:11.577Z,100955.56
2023-05-09T02:52:38.912Z,100960.94
2023-05-09T02:55:06.525Z,100956.50
2023-05-09T02:57:37.354Z,100962.81
2023-05-09T03:00:05.169Z,100953.84
2023-05-09T03:02:31.767Z,100962.72
2023-05-09T03:04:58.600Z,100967.31
2023-05-09T03:07:25.273Z,100954.81
2023-05-09T03:09:51.642Z,100962.97
2023-05-09T03:12:18.097Z,100961.16
2023-05-09T03:14:45.866Z,100955.75
2023-05-09T03:17:12.371Z,100954.00
2023-05-09T03:19:38.828Z,100955.75
2023-05-09T03:22:05.385Z,100955.75
2023-05-09T03:24:35.504Z,100959.44
2023-05-09T03:27:02.296Z,100954.06
2023-05-09T03:29:28.641Z,100948.69
2023-05-09T03:31:56.384Z,100953.25
2023-05-09T03:34:22.801Z,100954.19
2023-05-09T03:36:49.210Z,100956.03
2023-05-09T03:39:15.669Z,100953.34
2023-05-09T03:41:45.192Z,100947.03
2023-05-09T03:44:12.370Z,100946.16
2023-05-09T03:46:38.982Z,100950.72
2023-05-09T03:49:06.924Z,100945.41
2023-05-09T03:51:34.531Z,100944.56
2023-05-09T03:54:02.946Z,100950.81
2023-05-09T03:56:29.416Z,100938.19
2023-05-09T03:58:55.864Z,100945.41
2023-05-09T04:01:22.522Z,100946.28
2023-05-09T04:03:49.089Z,100948.97
2023-05-09T04:06:17.788Z,100946.31
2023-05-09T04:08:44.355Z,100947.22
2023-05-09T04:11:10.750Z,100947.25
2023-05-09T04:13:39.592Z,100951.75
2023-05-09T04:16:17.071Z,100952.63
2023-05-09T04:18:43.564Z,100950.81
2023-05-09T04:21:09.985Z,100948.97
2023-05-09T04:23:38.809Z,100953.34
2023-05-09T04:26:05.528Z,100951.53
2023-05-09T04:28:31.963Z,100946.09
2023-05-09T04:30:58.564Z,100937.91
2023-05-09T04:33:25.178Z,100937.88
2023-05-09T04:35:52.448Z,100927.97
2023-05-09T04:38:18.971Z,100936.00
2023-05-09T04:40:46.897Z,100926.97
2023-05-09T04:43:13.354Z,100930.53
2023-05-09T04:45:40.120Z,100931.38
2023-05-09T04:48:06.657Z,100932.19
2023-05-09T04:50:33.269Z,100930.31
2023-05-09T04:52:59.754Z,100924.81
2023-05-09T04:55:26.372Z,100921.13
2023-05-09T04:57:56.200Z,100922.88
2023-05-09T05:00:22.826Z,100915.59
2023-05-09T05:02:49.476Z,100920.91
2023-05-09T05:05:15.947Z,100922.53
2023-05-09T05:07:43.425Z,100911.59
2023-05-09T05:10:12.630Z,100921.38
2023-05-09T05:12:43.005Z,100915.91
2023-05-09T05:15:13.495Z,100910.31
2023-05-09T05:17:42.625Z,100907.31
2023-05-09T05:20:09.892Z,100884.63
2023-05-09T05:22:40.639Z,100875.03
2023-05-09T05:25:08.278Z,100871.59
2023-05-09T05:27:35.936Z,100861.91
2023-05-09T05:30:02.750Z,100865.03
2023-05-09T05:32:30.615Z,100865.72
2023-05-09T05:34:57.396Z,100870.81
2023-05-09T05:37:24.105Z,100866.13
2023-05-09T05:39:50.592Z,100862.56
2023-05-09T05:42:17.376Z,100863.16
2023-05-09T05:44:44.141Z,100858.25
2023-05-09T05:47:11.974Z,100864.53
2023-05-09T05:49:40.186Z,100863.47
2023-05-09T05:52:06.660Z,100857.34
2023-05-09T05:54:34.114Z,100859.75
2023-05-09T05:57:00.612Z,100852.53
2023-05-09T05:59:27.051Z,100863.13
2023-05-09T06:01:53.650Z,100853.56
2023-05-09T06:04:20.898Z,100853.03
2023-05-09T06:06:48.829Z,100842.38
2023-05-09T06:09:15.319Z,100842.34
2023-05-09T06:11:41.783Z,100841.25
2023-05-09T06:14:08.240Z,100839.66
2023-05-09T06:16:34.943Z,100846.31
2023-05-09T06:19:01.334Z,100835.69
2023-05-09T06:21:27.750Z,100845.22
2023-05-09T06:24:05.130Z,100841.81
2023-05-09T06:26:34.781Z,100840.63
2023-05-09T06:29:01.233Z,100842.28
2023-05-09T06:31:27.738Z,100843.41
2023-05-09T06:33:54.190Z,100837.75
2023-05-09T06:36:20.591Z,100833.63
2023-05-09T06:38:49.794Z,100840.81
2023-05-09T06:41:17.510Z,100835.03
2023-05-09T06:43:43.889Z,100836.28
2023-05-09T06:46:10.385Z,100835.38
2023-05-09T06:48:36.813Z,100830.75
2023-05-09T06:51:03.375Z,100830.38
2023-05-09T06:53:29.890Z,100820.84
2023-05-09T06:55:56.333Z,100826.50
2023-05-09T06:58:24.099Z,100823.34
2023-05-09T07:00:50.513Z,100814.91
2023-05-09T07:03:16.992Z,100817.50
2023-05-09T07:05:43.396Z,100805.34
2023-05-09T07:08:09.913Z,100805.22
2023-05-09T07:10:36.402Z,100795.81
2023-05-09T07:13:02.848Z,100789.03
2023-05-09T07:15:40.438Z,100793.63
2023-05-09T07:18:08.874Z,100787.81
2023-05-09T07:20:35.425Z,100793.28
2023-05-09T07:23:03.080Z,100785.78
2023-05-09T07:25:29.569Z,100784.75
2023-05-09T07:27:56.133Z,100779.81
2023-05-09T07:30:22.669Z,100789.97
2023-05-09T07:32:50.626Z,100781.63
2023-05-09T07:35:17.359Z,100778.56
2023-05-09T07:37:43.789Z,100773.16
2023-05-09T07:40:10.944Z,100762.31
2023-05-09T07:42:37.335Z,100765.31
2023-05-09T07:45:04.425Z,100753.22
2023-05-09T07:47:30.912Z,100768.69
2023-05-09T07:49:58.873Z,100757.28
2023-05-09T07:52:25.559Z,100745.53
2023-05-09T07:54:51.965Z,100752.41
2023-05-09T07:57:18.419Z,100747.25
2023-05-09T07:59:44.826Z,100748.09
2023-05-09T08:02:12.486Z,100738.31
2023-05-09T08:04:39.063Z,100736.53
2023-05-09T08:07:06.897Z,100729.91
2023-05-09T08:09:33.306Z,100728.91
2023-05-09T08:11:59.698Z,100726.16
2023-05-09T08:14:26.288Z,100726.31
2023-05-09T08:16:52.684Z,100721.22
2023-05-09T08:19:19.093Z,100725.22
2023-05-09T08:21:45.580Z,100705.75
2023-05-09T08:24:13.304Z,100716.34
2023-05-09T08:26:39.750Z,100703.44
2023-05-09T08:29:06.104Z,100701.78
2023-05-09T08:31:32.642Z,100705.13
2023-05-09T08:33:59.084Z,100699.72
2023-05-09T08:36:25.600Z,100689.78
2023-05-09T08:38:52.114Z,100687.84
2023-05-09T08:41:25.042Z,100678.88
2023-05-09T08:43:52.217Z,100675.66
2023-05-09T08:46:27.814Z,100676.00
2023-05-09T08:48:54.961Z,100675.56
2023-05-09T08:51:21.989Z,100672.47
2023-05-09T08:53:48.773Z,100671.53
2023-05-09T08:56:15.423Z,100676.88
2023-05-09T08:58:43.624Z,100668.22
2023-05-09T09:01:12.835Z,100656.22
2023-05-09T09:03:39.394Z,100659.84
2023-05-09T09:06:08.181Z,100656.88
2023-05-09T09:08:35.513Z,100651.81
2023-05-09T09:11:02.618Z,100649.91
2023-05-09T09:13:30.489Z,100655.09
2023-05-09T09:15:59.828Z,100658.63
2023-05-09T09:18:31.275Z,100651.50
2023-05-09T09:21:02.255Z,100649.59
2023-05-09T09:23:30.137Z,100653.34
2023-05-09T09:26:01.076Z,100657.34
2023-05-09T09:28:27.874Z,100642.34
2023-05-09T09:30:54.297Z,100639.38
2023-05-09T09:33:23.304Z,100630.16
2023-05-09T09:35:53.003Z,100624.41
2023-05-09T09:38:20.111Z,100616.81
2023-05-09T09:40:53.459Z,100619.19
2023-05-09T09:43:19.866Z,100622.66
2023-05-09T09:45:49.062Z,100612.56
2023-05-09T09:48:15.466Z,100614.59
2023-05-09T09:50:43.209Z,100603.28
2023-05-09T09:53:09.646Z,100610.63
2023-05-09T09:55:36.148Z,100611.50
2023-05-09T09:58:02.542Z,100598.59
2023-05-09T10:00:29.059Z,100609.03
2023-05-09T10:02:57.381Z,100593.63
2023-05-09T10:05:25.223Z,100593.09
2023-05-09T10:07:56.175Z,100589.25
2023-05-09T10:10:22.940Z,100581.06
2023-05-09T10:12:51.150Z,100584.78
2023-05-09T10:15:17.801Z,100577.41
2023-05-09T10:17:44.259Z,100574.22
2023-05-09T10:20:13.486Z,100569.38
2023-05-09T10:22:40.743Z,100572.25
2023-05-09T10:25:15.092Z,100570.72
2023-05-09T10:27:45.654Z,100568.91
2023-05-09T10:30:17.012Z,100555.38
2023-05-09T10:32:48.464Z,100555.66
2023-05-09T10:35:17.805Z,100543.72
2023-05-09T10:37:45.390Z,100544.66
2023-05-09T10:40:13.461Z,100541.16
2023-05-09T10:42:39.964Z,100541.84
2023-05-09T10:45:08.486Z,100531.34
2023-05-09T10:47:35.697Z,100538.88
2023-05-09T10:50:02.589Z,100532.88
2023-05-09T10:52:31.779Z,100527.34
2023-05-09T10:54:58.801Z,100523.84
2023-05-09T10:57:28.556Z,100517.91
2023-05-09T10:59:55.273Z,100521.41
2023-05-09T11:02:22.143Z,100510.47
2023-05-09T11:04:48.542Z,100495.28
2023-05-09T11:07:25.618Z,100508.88
2023-05-09T11:09:52.565Z,100499.22
2023-05-09T11:12:20.141Z,100497.78
2023-05-09T11:14:49.325Z,100486.91
2023-05-09T11:17:29.556Z,100487.91
2023-05-09T11:20:05.088Z,100475.78
2023-05-09T11:22:38.814Z,100458.31
2023-05-09T11:25:07.688Z,100467.03
2023-05-09T11:27:40.004Z,100453.75
2023-05-09T11:30:09.623Z,100462.94
2023-05-09T11:32:41.920Z,100442.97
2023-05-09T11:35:10.484Z,100447.31
2023-05-09T11:37:44.727Z,100447.13
2023-05-09T11:40:12.529Z,100433.56
2023-05-09T11:42:42.444Z,100438.94
2023-05-09T11:45:11.576Z,100429.91
2023-05-09T11:47:38.574Z,100426.75
2023-05-09T11:50:06.689Z,100419.59
2023-05-09T11:52:33.470Z,100420.81
2023-05-09T11:55:00.267Z,100430.59
2023-05-09T11:57:26.884Z,100408.91
2023-05-09T11:59:53.476Z,100409.13
2023-05-09T12:02:21.549Z,100410.50
2023-05-09T12:04:48.199Z,100404.13
2023-05-09T12:07:14.954Z,100397.06
2023-05-09T12:09:41.402Z,100394.22
2023-05-09T12:12:12.118Z,100374.31
2023-05-09T12:14:39.486Z,100364.66
2023-05-09T12:17:06.647Z,100368.56
2023-05-09T12:19:34.577Z,100360.72
2023-05-09T12:22:03.495Z,100364.38
2023-05-09T12:24:30.694Z,100371.47
2023-05-09T12:26:59.585Z,100375.88
2023-05-09T12:29:27.008Z,100364.22
2023-05-09T12:31:54.265Z,100364.81
2023-05-09T12:34:21.320Z,100352.63
2023-05-09T12:36:49.156Z,100343.25
2023-05-09T12:39:15.927Z,100334.53
2023-05-09T12:42:01.002Z,100334.06
2023-05-09T12:44:29.025Z,100337.09
2023-05-09T12:46:57.358Z,100322.13
2023-05-09T12:49:25.053Z,100316.06
2023-05-09T12:51:54.483Z,100316.25
2023-05-09T12:54:21.380Z,100306.88
2023-05-09T12:56:47.992Z,100291.69
2023-05-09T12:59:20.815Z,100299.38
2023-05-09T13:01:52.012Z,100288.31
2023-05-09T13:04:20.322Z,100275.44
2023-05-09T13:06:51.309Z,100272.84
2023-05-09T13:09:19.456Z,100268.88
2023-05-09T13:11:46.417Z,100273.44
2023-05-09T13:14:13.226Z,100263.25
2023-05-09T13:16:39.983Z,100261.81
2023-05-09T13:19:06.709Z,100256.94
2023-05-09T13:21:33.558Z,100263.78
2023-05-09T13:24:00.672Z,100238.66
2023-05-09T13:26:28.538Z,100243.00
2023-05-09T13:28:55.348Z,100241.00
2023-05-09T13:31:22.034Z,100241.53
2023-05-09T13:33:50.906Z,100245.88
2023-05-09T13:36:21.400Z,100258.84
2023-05-09T13:38:47.902Z,100244.03
2023-05-09T13:41:14.464Z,100247.19
2023-05-09T13:43:44.353Z,100233.75
2023-05-09T13:46:10.810Z,100218.53
2023-05-09T13:48:37.260Z,100216.16
2023-05-09T13:51:03.861Z,100209.31
2023-05-09T13:53:32.665Z,100210.38
2023-05-09T13:55:59.381Z,100191.25
2023-05-09T13:58:25.820Z,100199.19
2023-05-09T14:00:53.722Z,100199.34
2023-05-09T14:03:20.444Z,100194.81
2023-05-09T14:05:46.913Z,100189.22
2023-05-09T14:08:13.426Z,100195.06
2023-05-09T14:10:39.927Z,100187.75
2023-05-09T14:13:06.423Z,100175.81
2023-05-09T14:15:32.989Z,100183.50
2023-05-09T14:18:00.862Z,100183.53
2023-05-09T14:20:27.442Z,100177.16
2023-05-09T14:22:53.831Z,100180.31
2023-05-09T14:25:20.251Z,100189.97
2023-05-09T14:27:46.698Z,100177.59
2023-05-09T14:30:13.903Z,100185.28
2023-05-09T14:32:40.523Z,100165.84
2023-05-09T14:35:11.168Z,100169.28
2023-05-09T14:37:37.605Z,100172.88
2023-05-09T14:40:04.649Z,100167.22
2023-05-09T14:42:31.200Z,100159.19
2023-05-09T14:44:58.018Z,100161.00
2023-05-09T14:47:24.498Z,100163.66
2023-05-09T14:49:50.921Z,100171.06
2023-05-09T14:52:18.669Z,100162.28
2023-05-09T14:54:45.114Z,100159.25
2023-05-09T14:57:11.572Z,100162.09
2023-05-09T14:59:37.971Z,100163.94
2023-05-09T15:02:04.421Z,100159.63
2023-05-09T15:04:31.428Z,100151.44
2023-05-09T15:06:58.144Z,100149.28
2023-05-09T15:09:25.928Z,100146.66
2023-05-09T15:11:52.670Z,100149.78
2023-05-09T15:14:19.093Z,100150.00
2023-05-09T15:16:45.747Z,100138.06
2023-05-09T15:19:12.328Z,100134.47
2023-05-09T15:21:38.842Z,100127.78
2023-05-09T15:24:06.006Z,100128.06
2023-05-09T15:26:33.731Z,100134.00
2023-05-09T15:29:00.151Z,100123.28
2023-05-09T15:31:29.191Z,100121.22
2023-05-09T15:33:55.580Z,100120.81
2023-05-09T15:36:22.049Z,100118.59
2023-05-09T15:38:48.490Z,100111.06
2023-05-09T15:41:15.101Z,100093.75
2023-05-09T15:43:42.963Z,100101.63
2023-05-09T15:46:09.410Z,100111.38
2023-05-09T15:48:35.955Z,100115.31
2023-05-09T15:51:02.412Z,100103.38
2023-05-09T15:53:29.110Z,100109.72
2023-05-09T15:55:55.689Z,100096.44
2023-05-09T15:58:22.369Z,100107.81
2023-05-09T16:00:50.189Z,100083.38
2023-05-09T16:03:36.852Z,100086.47
2023-05-09T16:06:20.251Z,100090.53
2023-05-09T16:08:46.633Z,100084.66
2023-05-09T16:11:13.179Z,100077.00
2023-05-09T16:13:39.646Z,100080.94
2023-05-09T16:16:07.767Z,100090.00
2023-05-09T16:18:34.262Z,100087.88
2023-05-09T16:21:00.697Z,100082.75
2023-05-09T16:23:27.175Z,100072.25
2023-05-09T16:25:53.615Z,100072.88
2023-05-09T16:28:20.009Z,100065.47
2023-05-09T16:30:46.467Z,100062.22
2023-05-09T16:33:14.202Z,100055.97
2023-05-09T16:35:40.732Z,100050.31
2023-05-09T16:38:07.187Z,100044.91
2023-05-09T16:40:33.560Z,100041.81
2023-05-09T16:43:00.002Z,100045.66
2023-05-09T16:45:26.421Z,100043.91
2023-05-09T16:47:55.775Z,100028.22
2023-05-09T16:50:23.809Z,100038.59
2023-05-09T16:52:50.396Z,100025.63
2023-05-09T16:55:17.121Z,100031.13
2023-05-09T16:57:43.587Z,100019.84
2023-05-09T17:00:10.856Z,100016.84
2023-05-09T17:02:37.487Z,100011.56
2023-05-09T17:05:04.581Z,100002.66
2023-05-09T17:07:32.352Z,100001.44
2023-05-09T17:09:58.847Z,100004.16
2023-05-09T17:12:25.336Z,99993.38
2023-05-09T17:14:51.770Z,99992.06
2023-05-09T17:17:18.202Z,99998.03
2023-05-09T17:19:44.757Z,99996.97
2023-05-09T17:22:11.963Z,99999.41
2023-05-09T17:24:40.048Z,99997.09
2023-05-09T17:27:08.394Z,99993.28
2023-05-09T17:29:35.403Z,99999.88
2023-05-09T17:32:02.292Z,99977.53
2023-05-09T17:34:28.962Z,99991.91
2023-05-09T17:36:55.791Z,99982.63
2023-05-09T17:39:22.206Z,99989.66
2023-05-09T17:41:50.059Z,99989.09
2023-05-09T17:44:16.735Z,99987.16
2023-05-09T17:46:43.481Z,99973.03
2023-05-09T17:49:10.065Z,99986.75
2023-05-09T17:51:36.740Z,99980.69
2023-05-09T17:54:03.629Z,99988.47
2023-05-09T17:56:30.119Z,99984.41
2023-05-09T17:58:59.564Z,99987.47
2023-05-09T18:01:27.819Z,99981.31
2023-05-09T18:03:56.840Z,99975.41
2023-05-09T18:06:23.546Z,99972.13
2023-05-09T18:08:50.197Z,99981.75
2023-05-09T18:11:16.813Z,99975.63
2023-05-09T18:13:43.464Z,99956.41
2023-05-09T18:16:12.703Z,99973.06
2023-05-09T18:18:39.258Z,99976.03
2023-05-09T18:21:05.799Z,99966.56
2023-05-09T18:23:32.429Z,99955.38
2023-05-09T18:26:01.029Z,99980.91
2023-05-09T18:28:27.710Z,99966.75
2023-05-09T18:30:58.853Z,99975.59
2023-05-09T18:33:28.141Z,99976.56
2023-05-09T18:36:00.207Z,99973.41
2023-05-09T18:38:27.038Z,99976.03
2023-05-09T18:40:57.878Z,99970.97
2023-05-09T18:43:24.976Z,99961.53
2023-05-09T18:46:02.951Z,99985.84
2023-05-09T18:48:33.060Z,99967.81
2023-05-09T18:50:59.819Z,99975.38
2023-05-09T18:53:38.071Z,99983.34
2023-05-09T18:56:05.304Z,99987.28
2023-05-09T18:58:39.556Z,99974.50
2023-05-09T19:05:04.106Z,99991.97
2023-05-09T19:56:12.818Z,99946.56
2023-05-09T20:02:32.662Z,99954.75
2023-05-09T20:05:12.525Z,99962.16
2023-05-09T20:14:15.780Z,99949.25
2023-05-09T20:17:09.003Z,99959.38
2023-05-09T20:20:03.560Z,99955.16
2023-05-09T20:22:51.184Z,99943.75
2023-05-09T20:28:21.393Z,99946.03
2023-05-09T20:34:25.138Z,99925.88
2023-05-09T20:37:11.673Z,99941.28
2023-05-09T20:39:42.412Z,99932.69
2023-05-09T20:42:14.116Z,99928.47
2023-05-09T20:44:51.609Z,99930.91
2023-05-09T20:47:35.285Z,99924.06
2023-05-09T20:50:04.259Z,99910.00
2023-05-09T20:55:34.581Z,99913.53
2023-05-09T20:58:29.899Z,99921.59
2023-05-09T21:15:15.406Z,99904.75
2023-05-09T21:18:37.169Z,99902.44
2023-05-09T21:21:39.854Z,99900.88
2023-05-09T21:25:04.466Z,99889.78
2023-05-09T21:27:54.008Z,99888.19
2023-05-09T21:37:04.726Z,99888.88
2023-05-09T21:40:00.216Z,99895.28
2023-05-09T21:59:22.277Z,99882.22
2023-05-09T22:02:10.683Z,99882.38
2023-05-09T22:04:47.199Z,99884.63
2023-05-09T22:07:28.039Z,99882.16
2023-05-09T22:10:03.084Z,99871.03
2023-05-09T22:13:52.148Z,99878.78
2023-05-09T22:23:41.081Z,99870.09
2023-05-09T22:36:15.948Z,99866.25
2023-05-09T23:03:06.473Z,99836.94
2023-05-09T23:10:09.242Z,99830.44
2023-05-09T23:16:13.224Z,99825.72
2023-05-09T23:24:57.377Z,99832.91
2023-05-09T23:27:23.809Z,99825.06
2023-05-09T23:29:50.293Z,99822.34
2023-05-09T23:32:16.736Z,99826.00
2023-05-09T23:34:43.130Z,99815.44
2023-05-09T23:37:09.530Z,99811.00
2023-05-09T23:39:36.003Z,99812.19
2023-05-09T23:42:04.055Z,99816.72
2023-05-09T23:44:30.471Z,99811.47
2023-05-09T23:46:56.993Z,99810.78
2023-05-09T23:49:23.538Z,99806.47
2023-05-09T23:51:49.939Z,99799.44
2023-05-09T23:54:16.413Z,99804.13
2023-05-09T23:56:42.842Z,99790.66
2023-05-09T23:59:10.603Z,99789.03
